Time;durP1;ratioP1;P1;durP2;ratioP2;P2;SDS_P1;SDS_P2;PMS_P1;PMS_P2;Temp;Humidity;BMP_temperature;BMP_pressure;BME280_temperature;BME280_humidity;BME280_pressure;Samples;Min_cycle;Max_cycle;Signal;HPM_P1;HPM_P2
2021/04/23 00:01:27;;;;;;;3.03;2.00;;;;;;;-0.24;79.51;99300.28;4987487;28;20141;-73
2021/04/23 00:04:06;;;;;;;4.65;1.90;;;;;;;-0.31;79.50;99311.31;4984188;28;20022;-72
2021/04/23 00:06:45;;;;;;;3.10;2.00;;;;;;;-0.40;79.88;99309.44;4990011;28;20518;-72
2021/04/23 00:09:17;;;;;;;5.03;2.20;;;;;;;-0.41;80.07;99300.88;4988776;28;20290;-72
2021/04/23 00:11:53;;;;;;;4.00;2.20;;;;;;;-0.51;79.59;99308.41;4987550;28;20117;-72
2021/04/23 00:14:26;;;;;;;3.72;2.30;;;;;;;-0.46;80.47;99306.78;4989205;28;20080;-72
2021/04/23 00:16:52;;;;;;;2.20;1.77;;;;;;;-0.51;80.08;99313.53;4989755;28;20085;-72
2021/04/23 00:19:20;;;;;;;3.47;1.73;;;;;;;-0.52;80.60;99309.25;4990654;28;20022;-72
2021/04/23 00:21:46;;;;;;;2.00;1.80;;;;;;;-0.64;80.44;99315.03;4988813;28;20118;-72
2021/04/23 00:24:14;;;;;;;2.53;1.90;;;;;;;-0.77;80.42;99316.50;4990122;28;20141;-72
2021/04/23 00:26:40;;;;;;;3.75;2.15;;;;;;;-0.80;80.82;99313.00;4989724;28;20038;-72
2021/04/23 00:29:07;;;;;;;3.70;2.35;;;;;;;-0.69;81.45;99316.63;4989297;28;20023;-72
2021/04/23 00:31:33;;;;;;;3.22;2.05;;;;;;;-0.76;81.31;99322.47;4989702;28;20050;-72
2021/04/23 00:33:59;;;;;;;4.20;2.13;;;;;;;-0.85;80.96;99310.34;4990282;28;20027;-72
2021/04/23 00:36:24;;;;;;;3.05;1.92;;;;;;;-0.88;81.08;99311.97;4986477;28;20030;-72
2021/04/23 00:38:50;;;;;;;3.17;2.00;;;;;;;-0.92;80.81;99315.34;4991136;28;20439;-74
2021/04/23 00:41:22;;;;;;;1.90;1.70;;;;;;;-1.01;81.26;99322.84;4990967;28;20092;-72
2021/04/23 00:43:56;;;;;;;2.40;1.73;;;;;;;-1.01;81.97;99312.59;4980772;28;20039;-71
2021/04/23 00:46:22;;;;;;;2.30;1.92;;;;;;;-1.06;82.04;99320.19;4985656;28;20038;-72
2021/04/23 00:48:48;;;;;;;2.67;2.05;;;;;;;-1.12;82.06;99313.25;4988355;28;20026;-72
2021/04/23 00:51:28;;;;;;;3.85;1.90;;;;;;;-1.24;82.00;99315.56;4988596;28;20445;-72
2021/04/23 00:53:54;;;;;;;3.47;2.10;;;;;;;-1.33;82.05;99315.38;4988628;28;20085;-71
2021/04/23 00:56:23;;;;;;;4.60;2.00;;;;;;;-1.34;82.01;99316.19;4988524;28;20305;-72
2021/04/23 00:58:50;;;;;;;2.70;1.90;;;;;;;-1.39;82.15;99311.81;4987873;28;20034;-71
2021/04/23 01:01:20;;;;;;;2.60;1.97;;;;;;;-1.35;82.87;99313.59;4989472;28;20050;-74
2021/04/23 01:03:46;;;;;;;2.58;1.95;;;;;;;-1.43;82.96;99319.44;4987909;28;20031;-72
2021/04/23 01:06:18;;;;;;;3.03;1.92;;;;;;;-1.32;83.18;99316.22;4989121;28;20030;-72
2021/04/23 01:08:46;;;;;;;3.92;2.30;;;;;;;-1.33;83.38;99312.81;4989919;28;20140;-72
2021/04/23 01:11:13;;;;;;;4.57;2.40;;;;;;;-1.31;83.33;99310.25;4989032;28;20118;-71
2021/04/23 01:13:41;;;;;;;3.10;2.03;;;;;;;-1.46;83.15;99314.25;4988203;28;20046;-72
2021/04/23 01:16:10;;;;;;;3.35;2.13;;;;;;;-1.47;83.53;99311.63;4986804;28;20030;-71
2021/04/23 01:18:36;;;;;;;3.03;2.20;;;;;;;-1.49;83.75;99311.59;4986687;28;20101;-71
2021/04/23 01:21:14;;;;;;;3.08;2.30;;;;;;;-1.36;83.82;99306.72;4982887;28;20030;-71
2021/04/23 01:23:41;;;;;;;2.65;1.80;;;;;;;-1.45;83.70;99308.28;4981552;28;20460;-71
2021/04/23 01:26:08;;;;;;;;;;;;;;;-1.55;84.01;99313.19;4989550;28;20038;-71
2021/04/23 01:28:37;;;;;;;2.00;1.80;;;;;;;-1.61;84.28;99306.22;4988801;28;19913;-71
2021/04/23 01:31:05;;;;;;;2.63;1.88;;;;;;;-1.64;84.29;99315.53;4988682;28;20112;-71
2021/04/23 01:33:34;;;;;;;3.08;2.00;;;;;;;-1.62;84.88;99311.31;4990007;28;20036;-70
2021/04/23 01:36:00;;;;;;;3.13;1.95;;;;;;;-1.64;84.92;99307.84;4989510;28;20034;-71
2021/04/23 01:38:25;;;;;;;5.28;2.25;;;;;;;-1.53;84.70;99314.94;4986234;28;20057;-71
2021/04/23 01:40:51;;;;;;;3.33;2.00;;;;;;;-1.58;84.35;99313.13;4983960;28;20444;-71
2021/04/23 01:43:19;;;;;;;2.50;2.00;;;;;;;-1.67;84.42;99315.47;4988642;28;20489;-73
2021/04/23 01:45:45;;;;;;;2.97;1.80;;;;;;;-1.66;84.54;99315.50;4990106;28;20038;-71
2021/04/23 01:48:12;;;;;;;2.75;1.85;;;;;;;-1.78;84.33;99316.09;4988038;28;20050;-71
2021/04/23 01:50:37;;;;;;;3.30;1.92;;;;;;;-1.73;84.92;99313.66;5001085;28;20092;-71
2021/04/23 01:53:03;;;;;;;3.50;2.05;;;;;;;-1.72;84.99;99311.94;4985836;28;20042;-71
2021/04/23 01:55:28;;;;;;;2.05;1.63;;;;;;;-1.77;84.93;99316.97;4992750;28;20108;-72
2021/04/23 01:57:54;;;;;;;3.28;2.10;;;;;;;-1.78;85.14;99322.91;4989547;28;20030;-72
2021/04/23 02:00:20;;;;;;;3.08;2.15;;;;;;;-1.81;85.30;99321.16;4990545;28;20572;-72
2021/04/23 02:02:46;;;;;;;2.25;1.88;;;;;;;-1.79;85.55;99329.75;4991773;28;20034;-72
2021/04/23 02:05:12;;;;;;;3.33;2.00;;;;;;;-1.77;85.39;99330.66;4991979;28;20451;-72
2021/04/23 02:07:37;;;;;;;2.53;2.03;;;;;;;-1.84;85.65;99323.66;4990637;28;20496;-72
2021/04/23 02:10:06;;;;;;;3.33;2.00;;;;;;;-1.84;85.43;99333.06;4991609;28;20485;-71
2021/04/23 02:12:32;;;;;;;2.42;1.83;;;;;;;-1.86;85.68;99329.59;4990239;28;20150;-71
2021/04/23 02:14:57;;;;;;;4.38;2.13;;;;;;;-1.94;85.49;99337.06;4990894;28;20058;-71
2021/04/23 02:17:23;;;;;;;2.80;1.88;;;;;;;-1.87;85.31;99338.09;4986982;28;20129;-71
2021/04/23 02:19:48;;;;;;;2.92;2.17;;;;;;;-1.95;85.46;99337.03;4990393;28;20030;-72
2021/04/23 02:22:14;;;;;;;2.47;2.00;;;;;;;-1.91;85.76;99338.84;4989171;28;20033;-71
2021/04/23 02:24:40;;;;;;;3.10;1.83;;;;;;;-2.02;85.73;99346.28;4992225;28;20024;-71
2021/04/23 02:27:05;;;;;;;3.05;1.90;;;;;;;-2.03;85.53;99341.13;4992146;28;20105;-72
2021/04/23 02:29:31;;;;;;;1.92;1.73;;;;;;;-2.09;85.52;99341.84;4992033;28;20034;-72
2021/04/23 02:31:56;;;;;;;2.42;1.85;;;;;;;-2.13;85.77;99346.00;4991910;28;20026;-71
2021/04/23 02:34:25;;;;;;;4.13;2.47;;;;;;;-2.18;86.24;99342.50;4992209;28;20085;-71
2021/04/23 02:36:51;;;;;;;6.35;2.63;;;;;;;-2.16;86.26;99345.09;4990670;28;20034;-71
2021/04/23 02:39:19;;;;;;;4.03;2.13;;;;;;;-2.15;86.37;99344.25;4980870;28;20504;-72
2021/04/23 02:41:50;;;;;;;4.68;2.08;;;;;;;-2.14;86.82;99353.69;4978142;28;20129;-72
2021/04/23 02:44:16;;;;;;;3.35;2.15;;;;;;;-2.18;86.51;99347.63;4975468;28;20356;-72
2021/04/23 02:46:42;;;;;;;2.17;1.83;;;;;;;-2.19;86.75;99353.56;4992840;28;20034;-71
2021/04/23 02:49:08;;;;;;;2.50;1.70;;;;;;;-2.22;86.59;99355.19;4991903;28;20030;-71
2021/04/23 02:51:40;;;;;;;2.88;1.88;;;;;;;-2.25;86.97;99357.66;4991108;28;20026;-72
2021/04/23 02:54:06;;;;;;;4.25;2.03;;;;;;;-2.27;86.73;99349.06;4984600;28;20054;-71
2021/04/23 02:56:32;;;;;;;2.60;2.10;;;;;;;-2.22;86.98;99352.59;4989984;28;20497;-72
2021/04/23 02:59:03;;;;;;;3.15;1.88;;;;;;;-2.20;87.00;99350.97;4992488;28;20030;-72
2021/04/23 03:01:35;;;;;;;2.95;2.00;;;;;;;-2.16;87.19;99352.78;4989790;28;20560;-71
2021/04/23 03:04:03;;;;;;;2.63;1.75;;;;;;;-2.26;87.15;99346.53;4989988;28;20456;-72
2021/04/23 03:06:28;;;;;;;2.70;2.00;;;;;;;-2.34;86.52;99357.44;4983587;28;20034;-72
2021/04/23 03:08:53;;;;;;;2.10;1.83;;;;;;;-2.35;86.77;99351.44;4991111;28;20026;-71
2021/04/23 03:11:23;;;;;;;3.80;2.00;;;;;;;-2.26;87.55;99355.91;4989221;28;20120;-72
2021/04/23 03:13:53;;;;;;;2.22;1.73;;;;;;;-2.32;87.07;99355.78;4990270;28;20061;-71
2021/04/23 03:16:19;;;;;;;3.13;2.30;;;;;;;-2.31;87.37;99360.06;4990743;28;20030;-71
2021/04/23 03:18:45;;;;;;;3.67;1.85;;;;;;;-2.37;86.92;99357.34;4988170;28;20034;-71
2021/04/23 03:21:13;;;;;;;1.88;1.73;;;;;;;-2.41;87.18;99365.78;4990866;28;20180;-71
2021/04/23 03:23:39;;;;;;;;;;;;;;;-2.44;87.38;99369.13;4988834;28;20045;-72
2021/04/23 03:26:07;;;;;;;3.50;1.90;;;;;;;-2.38;87.26;99366.72;4990502;28;19914;-72
2021/04/23 03:28:33;;;;;;;2.55;1.90;;;;;;;-2.36;87.08;99362.50;4996301;28;20026;-72
2021/04/23 03:31:00;;;;;;;3.30;2.00;;;;;;;-2.47;87.18;99363.94;4993003;28;20031;-72
2021/04/23 03:33:26;;;;;;;4.03;1.77;;;;;;;-2.47;87.19;99365.63;4988248;28;20057;-72
2021/04/23 03:35:55;;;;;;;2.13;1.75;;;;;;;-2.46;87.89;99378.47;4991645;28;20042;-72
2021/04/23 03:38:21;;;;;;;2.95;1.90;;;;;;;-2.54;87.79;99370.56;4990352;28;20046;-72
2021/04/23 03:40:48;;;;;;;2.20;1.90;;;;;;;-2.51;87.89;99377.47;4973411;28;20042;-71
2021/04/23 03:43:15;;;;;;;2.03;1.80;;;;;;;-2.51;88.14;99378.34;4988160;28;20034;-71
2021/04/23 03:45:40;;;;;;;3.00;1.95;;;;;;;-2.51;87.63;99380.03;4989094;28;20030;-72
2021/04/23 03:48:08;;;;;;;2.35;1.85;;;;;;;-2.51;87.59;99387.72;4990230;28;20389;-72
2021/04/23 03:50:36;;;;;;;2.58;2.05;;;;;;;-2.55;87.87;99379.09;4989103;28;20038;-72
2021/04/23 03:53:05;;;;;;;2.90;1.88;;;;;;;-2.38;87.83;99386.34;4987678;28;20487;-72
2021/04/23 03:55:34;;;;;;;3.33;1.90;;;;;;;-2.51;87.75;99383.47;4986576;28;20116;-72
2021/04/23 03:58:00;;;;;;;2.60;1.92;;;;;;;-2.59;87.41;99384.06;4988089;28;20025;-72
2021/04/23 04:00:31;;;;;;;3.53;2.00;;;;;;;-2.57;87.80;99382.41;4989408;28;20412;-72
2021/04/23 04:02:56;;;;;;;2.25;1.70;;;;;;;-2.64;87.44;99388.22;4989478;28;20030;-72
2021/04/23 04:05:24;;;;;;;4.45;1.95;;;;;;;-2.62;87.96;99384.00;4990805;28;20033;-72
2021/04/23 04:07:49;;;;;;;;;;;;;;;-2.57;87.60;99392.66;4991567;28;20038;-72
2021/04/23 04:10:17;;;;;;;2.05;1.80;;;;;;;-2.66;87.71;99384.75;4990814;28;20059;-73
2021/04/23 04:12:43;;;;;;;3.70;2.08;;;;;;;-2.69;88.04;99390.66;4984025;28;20034;-71
2021/04/23 04:15:08;;;;;;;4.72;2.00;;;;;;;-2.59;88.16;99399.44;4993248;28;20080;-71
2021/04/23 04:17:34;;;;;;;2.20;2.00;;;;;;;-2.65;87.58;99392.47;4990273;28;20153;-71
2021/04/23 04:20:05;;;;;;;3.10;2.00;;;;;;;-2.66;87.95;99390.72;4973140;28;20027;-71
2021/04/23 04:22:32;;;;;;;3.75;2.00;;;;;;;-2.73;87.77;99393.06;4976172;28;20447;-71
2021/04/23 04:24:57;;;;;;;3.03;2.10;;;;;;;-2.63;88.01;99398.50;4989093;28;20026;-71
2021/04/23 04:27:23;;;;;;;3.88;1.88;;;;;;;-2.75;87.86;99390.47;4985702;28;20030;-72
2021/04/23 04:29:50;;;;;;;2.33;1.80;;;;;;;-2.73;87.69;99401.63;4989915;28;20042;-71
2021/04/23 04:32:16;;;;;;;;;;;;;;;-2.69;87.90;99408.56;4989882;28;20041;-71
2021/04/23 04:34:43;;;;;;;2.72;1.73;;;;;;;-2.70;88.10;99406.81;4988685;28;19921;-71
2021/04/23 04:37:09;;;;;;;2.53;1.95;;;;;;;-2.68;88.23;99400.06;4997535;28;20125;-71
2021/04/23 04:39:34;;;;;;;3.13;2.33;;;;;;;-2.51;87.69;99403.09;4989802;28;20034;-71
2021/04/23 04:42:00;;;;;;;4.25;2.53;;;;;;;-2.42;88.00;99410.13;4989822;28;20026;-71
2021/04/23 04:44:28;;;;;;;3.55;2.30;;;;;;;-2.36;87.27;99418.00;4988370;28;20034;-71
2021/04/23 04:46:54;;;;;;;3.60;2.20;;;;;;;-2.34;87.41;99411.22;4987722;28;20543;-71
2021/04/23 04:49:19;;;;;;;2.78;2.17;;;;;;;-2.25;87.59;99411.44;4987733;28;20030;-71
2021/04/23 04:51:45;;;;;;;3.92;2.45;;;;;;;-2.16;87.03;99417.69;4987783;28;20038;-72
2021/04/23 04:54:12;;;;;;;3.03;2.13;;;;;;;-2.12;86.46;99422.03;4988655;28;20030;-71
2021/04/23 04:56:38;;;;;;;;;;;;;;;-2.06;86.67;99418.78;4989621;28;20033;-71
2021/04/23 04:59:06;;;;;;;3.97;2.40;;;;;;;-2.00;86.57;99415.53;4986737;28;19917;-71
2021/04/23 05:01:33;;;;;;;2.15;1.88;;;;;;;-1.90;86.33;99420.03;4987013;28;20488;-71
2021/04/23 05:03:59;;;;;;;2.72;2.08;;;;;;;-1.85;86.37;99424.47;4987917;28;20019;-71
2021/04/23 05:06:24;;;;;;;2.72;2.10;;;;;;;-1.75;85.92;99424.69;4989210;28;20395;-72
2021/04/23 05:08:50;;;;;;;2.97;2.20;;;;;;;-1.62;85.91;99426.69;4986376;28;20586;-71
2021/04/23 05:11:17;;;;;;;2.65;2.13;;;;;;;-1.53;84.96;99426.94;4985683;28;20030;-72
2021/04/23 05:13:43;;;;;;;2.78;1.95;;;;;;;-1.45;85.10;99426.28;4987995;28;20062;-71
2021/04/23 05:16:08;;;;;;;2.85;1.95;;;;;;;-1.34;84.87;99433.34;4987074;28;20076;-71
2021/04/23 05:18:33;;;;;;;4.32;2.28;;;;;;;-1.18;83.90;99430.28;4989954;28;20437;-72
2021/04/23 05:20:59;;;;;;;2.63;2.13;;;;;;;-1.07;83.08;99429.69;4988611;28;20515;-71
2021/04/23 05:23:24;;;;;;;6.65;2.40;;;;;;;-0.91;82.63;99430.88;4988390;28;20443;-72
2021/04/23 05:25:50;;;;;;;4.07;2.35;;;;;;;-0.78;81.90;99432.91;4992892;28;20042;-72
2021/04/23 05:28:16;;;;;;;2.40;2.00;;;;;;;-0.61;81.18;99433.22;4990430;28;20547;-73
2021/04/23 05:30:41;;;;;;;2.72;2.00;;;;;;;-0.49;81.08;99435.19;4991793;28;20077;-71
2021/04/23 05:33:11;;;;;;;3.38;2.47;;;;;;;-0.30;80.85;99437.25;4995079;28;20031;-72
2021/04/23 05:35:39;;;;;;;4.22;2.42;;;;;;;-0.12;80.24;99435.03;4999835;28;20031;-72
2021/04/23 05:38:08;;;;;;;3.50;2.20;;;;;;;0.08;79.67;99439.66;4992189;28;20447;-76
2021/04/23 05:40:43;;;;;;;3.95;2.67;;;;;;;0.27;79.00;99442.56;4992732;28;20049;-76
2021/04/23 05:43:08;;;;;;;3.03;2.17;;;;;;;0.46;78.15;99448.88;4993620;28;20030;-76
2021/04/23 05:45:35;;;;;;;5.55;2.58;;;;;;;0.61;77.54;99443.97;4992689;28;20385;-76
2021/04/23 05:48:03;;;;;;;4.07;2.33;;;;;;;0.77;76.86;99446.78;4990471;28;20037;-76
2021/04/23 05:50:28;;;;;;;5.18;2.60;;;;;;;0.93;76.35;99451.31;4979131;28;20047;-76
2021/04/23 05:52:54;;;;;;;3.70;2.38;;;;;;;1.08;75.87;99458.38;4972688;28;20034;-76
2021/04/23 05:55:25;;;;;;;3.75;2.42;;;;;;;1.23;75.78;99453.44;4973313;28;20101;-77
2021/04/23 05:57:52;;;;;;;3.10;2.33;;;;;;;1.39;74.27;99450.22;4975996;28;20027;-77
2021/04/23 06:00:19;;;;;;;3.83;2.60;;;;;;;1.62;74.35;99459.09;4985781;28;20022;-77
2021/04/23 06:02:47;;;;;;;3.42;2.30;;;;;;;1.79;73.21;99455.84;4989333;28;20488;-76
2021/04/23 06:05:14;;;;;;;4.90;3.00;;;;;;;1.93;72.45;99460.31;4980415;28;20066;-77
2021/04/23 06:07:43;;;;;;;4.95;2.97;;;;;;;2.12;71.56;99456.22;4973283;28;20046;-77
2021/04/23 06:10:10;;;;;;;4.78;2.88;;;;;;;2.33;71.54;99464.13;4972704;28;20373;-77
2021/04/23 06:12:35;;;;;;;3.60;2.40;;;;;;;2.51;70.71;99455.69;4985963;28;20499;-77
2021/04/23 06:15:01;;;;;;;4.75;2.60;;;;;;;2.68;69.91;99471.31;5003326;28;20034;-77
2021/04/23 06:17:27;;;;;;;3.50;2.40;;;;;;;2.92;69.48;99462.88;4992182;28;20034;-78
2021/04/23 06:19:52;;;;;;;4.05;2.45;;;;;;;3.04;68.13;99462.97;4991802;28;20050;-77
2021/04/23 06:22:18;;;;;;;4.00;2.33;;;;;;;3.25;67.86;99464.81;4988062;28;20514;-77
2021/04/23 06:24:46;;;;;;;5.97;2.33;;;;;;;3.48;67.49;99465.81;4989369;28;20053;-77
2021/04/23 06:27:14;;;;;;;3.83;2.70;;;;;;;3.63;66.71;99462.41;4993860;28;20030;-77
2021/04/23 06:29:41;;;;;;;3.35;2.10;;;;;;;3.85;65.44;99465.06;4988410;28;20121;-77
2021/04/23 06:32:07;;;;;;;;;;;;;;;4.11;65.38;99459.97;4992195;28;20523;-77
2021/04/23 06:34:32;;;;;;;3.65;2.20;;;;;;;4.31;65.89;99459.97;4983852;28;19929;-77
2021/04/23 06:36:58;;;;;;;4.22;2.15;;;;;;;4.48;66.04;99457.41;4984289;28;20530;-77
2021/04/23 06:39:26;;;;;;;4.18;2.30;;;;;;;4.70;65.21;99448.78;4994103;28;20036;-77
2021/04/23 06:41:52;;;;;;;4.60;2.38;;;;;;;4.91;64.14;99453.06;4991967;28;20034;-77
2021/04/23 06:44:18;;;;;;;4.38;2.10;;;;;;;5.12;63.31;99447.00;4992530;28;20113;-77
2021/04/23 06:46:43;;;;;;;4.25;2.42;;;;;;;5.32;63.29;99453.00;4993300;28;20113;-77
2021/04/23 06:49:10;;;;;;;3.88;2.30;;;;;;;5.46;63.39;99452.97;4992368;28;20137;-77
2021/04/23 06:51:37;;;;;;;4.50;2.33;;;;;;;6.27;60.79;99451.69;4991028;28;20121;-76
2021/04/23 06:54:06;;;;;;;4.10;2.40;;;;;;;6.24;59.60;99448.28;4986166;28;20038;-75
2021/04/23 06:56:32;;;;;;;6.07;2.75;;;;;;;6.19;59.46;99453.50;4992041;28;20377;-75
2021/04/23 06:58:57;;;;;;;5.05;2.58;;;;;;;6.31;58.02;99448.19;4991059;28;20030;-75
2021/04/23 07:01:23;;;;;;;4.93;2.70;;;;;;;6.47;57.87;99441.16;4988886;28;20022;-75
2021/04/23 07:03:48;;;;;;;3.63;2.40;;;;;;;6.63;57.29;99445.38;4989319;28;20555;-75
2021/04/23 07:06:14;;;;;;;6.13;2.58;;;;;;;6.92;56.64;99441.63;4981725;28;20022;-76
2021/04/23 07:08:40;;;;;;;4.30;2.20;;;;;;;7.10;55.17;99441.47;4984785;28;20046;-75
2021/04/23 07:11:06;;;;;;;4.10;2.72;;;;;;;7.21;55.33;99439.59;4971778;28;20027;-75
2021/04/23 07:13:32;;;;;;;4.72;2.42;;;;;;;7.44;54.95;99439.38;4971300;28;20106;-75
2021/04/23 07:15:57;;;;;;;5.43;2.10;;;;;;;7.62;54.13;99440.91;4970128;28;20129;-75
2021/04/23 07:18:23;;;;;;;4.47;2.25;;;;;;;7.48;53.85;99440.19;4969601;28;20030;-75
2021/04/23 07:20:48;;;;;;;3.92;2.30;;;;;;;7.91;53.70;99435.31;4978814;28;20452;-76
2021/04/23 07:23:13;;;;;;;3.65;1.95;;;;;;;8.11;52.64;99436.72;4982391;28;20109;-75
2021/04/23 07:25:42;;;;;;;4.03;2.00;;;;;;;8.37;51.96;99435.53;4979943;28;20027;-75
2021/04/23 07:28:08;;;;;;;3.13;1.90;;;;;;;8.52;51.13;99442.25;4991192;28;20098;-75
2021/04/23 07:30:35;;;;;;;5.45;2.20;;;;;;;8.72;52.22;99440.16;4987975;28;20381;-75
2021/04/23 07:33:04;;;;;;;4.65;2.20;;;;;;;9.13;50.61;99436.84;4988931;28;20619;-75
2021/04/23 07:35:29;;;;;;;3.75;2.40;;;;;;;9.39;49.36;99436.34;4987555;28;20038;-75
2021/04/23 07:37:57;;;;;;;3.80;2.17;;;;;;;9.58;49.18;99435.09;4988384;28;20026;-75
2021/04/23 07:40:23;;;;;;;3.90;2.15;;;;;;;9.47;49.11;99431.84;4991232;28;20034;-75
2021/04/23 07:42:48;;;;;;;5.53;2.20;;;;;;;9.66;47.51;99432.31;4990653;28;20061;-75
2021/04/23 07:45:15;;;;;;;8.32;3.25;;;;;;;9.92;48.13;99426.56;4998611;28;20132;-75
2021/04/23 07:47:42;;;;;;;5.18;2.50;;;;;;;10.18;47.83;99427.72;4979948;28;20030;-76
2021/04/23 07:50:08;;;;;;;;;;;;;;;10.31;47.77;99430.91;4970813;28;20476;-75
2021/04/23 07:52:34;;;;;;;7.85;3.50;;;;;;;10.25;48.03;99423.22;4970673;28;20347;-75
2021/04/23 07:55:02;;;;;;;4.03;1.92;;;;;;;10.56;46.07;99425.97;4985072;28;20033;-75
2021/04/23 07:57:28;;;;;;;5.20;2.30;;;;;;;10.93;45.83;99420.69;4969560;28;20023;-75
2021/04/23 07:59:54;;;;;;;10.70;4.28;;;;;;;11.23;45.32;99426.84;4969343;28;20037;-76
2021/04/23 08:02:19;;;;;;;12.27;5.50;;;;;;;11.23;46.20;99422.47;4970294;28;20037;-76
2021/04/23 08:04:45;;;;;;;3.85;2.30;;;;;;;11.61;43.36;99423.16;4970082;28;20018;-75
2021/04/23 08:07:11;;;;;;;4.22;2.20;;;;;;;11.80;42.73;99419.13;4971193;28;20501;-76
2021/04/23 08:09:37;;;;;;;3.22;2.00;;;;;;;11.97;41.40;99416.88;4970981;28;20121;-75
2021/04/23 08:12:03;;;;;;;3.55;1.85;;;;;;;12.06;42.01;99421.00;4969991;28;20089;-75
2021/04/23 08:14:29;;;;;;;4.13;2.03;;;;;;;12.13;39.97;99425.13;4970199;28;20042;-74
2021/04/23 08:16:54;;;;;;;4.22;2.47;;;;;;;12.31;40.12;99421.09;4974574;28;20030;-76
2021/04/23 08:19:20;;;;;;;6.75;2.70;;;;;;;12.44;40.05;99421.56;4983784;28;20302;-73
2021/04/23 08:21:46;;;;;;;9.98;3.08;;;;;;;11.98;40.03;99431.72;4984736;28;20043;-74
2021/04/23 08:24:11;;;;;;;5.82;2.28;;;;;;;12.40;39.32;99423.41;4995747;28;20084;-75
2021/04/23 08:26:42;;;;;;;3.42;2.10;;;;;;;12.52;38.84;99420.41;4993671;28;20046;-76
2021/04/23 08:29:10;;;;;;;3.85;2.03;;;;;;;12.17;40.07;99416.28;4997296;28;20107;-76
2021/04/23 08:31:40;;;;;;;5.03;2.20;;;;;;;12.47;39.20;99421.47;4996508;28;20338;-75
2021/04/23 08:34:06;;;;;;;4.20;2.30;;;;;;;12.81;38.37;99414.22;4990782;28;20447;-76
2021/04/23 08:36:32;;;;;;;4.47;2.30;;;;;;;13.15;37.97;99416.53;4991911;28;20038;-75
2021/04/23 08:39:00;;;;;;;3.33;2.05;;;;;;;13.23;37.30;99424.16;4992359;28;20022;-75
2021/04/23 08:41:26;;;;;;;4.13;2.10;;;;;;;13.27;37.11;99424.03;4990956;28;20034;-75
2021/04/23 08:43:51;;;;;;;3.17;1.85;;;;;;;12.92;37.14;99408.59;4990416;28;20053;-75
2021/04/23 08:46:17;;;;;;;4.45;2.20;;;;;;;13.11;38.10;99417.56;4988311;28;20077;-74
2021/04/23 08:48:43;;;;;;;4.65;2.42;;;;;;;13.39;38.19;99417.47;4990185;28;20441;-74
2021/04/23 08:51:09;;;;;;;6.75;2.47;;;;;;;13.21;36.17;99418.97;4989162;28;20089;-74
2021/04/23 08:53:34;;;;;;;4.97;2.22;;;;;;;13.53;38.02;99415.19;4987701;28;20403;-74
2021/04/23 08:56:01;;;;;;;4.60;2.20;;;;;;;13.50;37.40;99410.03;4989256;28;20026;-74
2021/04/23 08:58:26;;;;;;;4.22;2.20;;;;;;;13.79;35.53;99406.31;4986948;28;20472;-75
2021/04/23 09:00:53;;;;;;;4.95;2.30;;;;;;;13.96;34.81;99409.19;4989395;28;20193;-74
2021/04/23 09:03:23;;;;;;;3.95;2.00;;;;;;;13.70;35.14;99410.16;4991796;28;20420;-75
2021/04/23 09:06:06;;;;;;;6.15;2.65;;;;;;;13.15;37.89;99413.91;4988496;28;20026;-73
2021/04/23 09:08:35;;;;;;;3.28;2.13;;;;;;;13.83;36.17;99404.44;4989934;28;20030;-73
2021/04/23 09:11:16;;;;;;;7.25;2.50;;;;;;;14.26;34.67;99408.91;4988263;28;20073;-73
2021/04/23 09:13:53;;;;;;;4.50;1.90;;;;;;;14.39;33.90;99405.72;4985192;28;20488;-73
2021/04/23 09:16:22;;;;;;;3.90;2.00;;;;;;;14.49;33.63;99406.25;4984557;28;20404;-73
2021/04/23 09:18:48;;;;;;;6.03;2.17;;;;;;;13.58;35.19;99407.16;4980463;28;20037;-73
2021/04/23 09:21:15;;;;;;;3.67;1.90;;;;;;;14.03;34.96;99408.03;4970001;28;20038;-73
2021/04/23 09:23:52;;;;;;;5.93;2.20;;;;;;;14.39;34.75;99405.72;4968763;28;20038;-73
2021/04/23 09:26:36;;;;;;;3.47;1.95;;;;;;;14.75;34.75;99402.53;4969637;28;20029;-73
2021/04/23 09:29:20;;;;;;;5.45;2.28;;;;;;;14.99;34.48;99406.75;4970094;28;20022;-73
2021/04/23 09:31:45;;;;;;;4.47;2.25;;;;;;;14.99;33.29;99398.84;4970528;28;20050;-73
2021/04/23 09:34:10;;;;;;;5.88;2.47;;;;;;;15.07;33.22;99398.53;4972250;28;20035;-73
2021/04/23 09:36:45;;;;;;;4.90;2.25;;;;;;;14.99;33.97;99395.38;4973242;28;20033;-73
2021/04/23 09:39:12;;;;;;;5.13;2.38;;;;;;;15.13;33.35;99403.53;4969882;28;20081;-73
2021/04/23 09:41:47;;;;;;;4.35;2.22;;;;;;;14.86;33.83;99404.72;4968174;28;20043;-73
2021/04/23 09:44:35;;;;;;;4.20;2.28;;;;;;;15.08;33.91;99403.75;4968872;28;20027;-73
2021/04/23 09:47:14;;;;;;;3.78;2.28;;;;;;;15.39;33.32;99405.03;4967706;28;20420;-73
2021/04/23 09:49:44;;;;;;;4.32;2.35;;;;;;;14.68;33.43;99408.97;4969426;28;20098;-73
2021/04/23 09:52:13;;;;;;;6.07;2.55;;;;;;;14.75;33.27;99407.81;4970779;28;20082;-73
2021/04/23 09:54:47;;;;;;;5.55;2.30;;;;;;;14.43;36.71;99407.34;4988120;28;20034;-73
2021/04/23 09:57:19;;;;;;;6.03;2.33;;;;;;;15.05;33.09;99403.00;4987932;28;20431;-73
2021/04/23 09:59:53;;;;;;;4.47;2.20;;;;;;;15.29;32.68;99406.34;4988369;28;20033;-74
2021/04/23 10:02:20;;;;;;;4.20;2.10;;;;;;;15.41;31.96;99404.06;4985588;28;20476;-74
2021/04/23 10:04:46;;;;;;;4.78;2.28;;;;;;;15.36;31.84;99406.03;4987613;28;20081;-73
2021/04/23 10:07:14;;;;;;;4.25;2.10;;;;;;;15.31;31.99;99409.78;4987368;28;20034;-75
2021/04/23 10:09:55;;;;;;;3.60;2.00;;;;;;;16.05;31.65;99398.47;4988380;28;20034;-73
2021/04/23 10:12:38;;;;;;;6.50;2.50;;;;;;;16.03;31.54;99402.16;4989477;28;20126;-73
2021/04/23 10:15:04;;;;;;;4.93;2.30;;;;;;;16.12;30.57;99396.44;4989666;28;20041;-73
2021/04/23 10:17:29;;;;;;;4.53;2.25;;;;;;;16.17;30.75;99400.56;4990249;28;20030;-73
2021/04/23 10:19:55;;;;;;;5.20;2.22;;;;;;;16.40;31.25;99396.81;4992074;28;20498;-73
2021/04/23 10:22:22;;;;;;;3.97;2.25;;;;;;;16.56;30.00;99401.34;4992009;28;20408;-74
2021/04/23 10:24:52;;;;;;;3.83;2.30;;;;;;;16.38;29.63;99398.66;4992576;28;20027;-73
2021/04/23 10:27:19;;;;;;;5.57;2.20;;;;;;;16.25;29.58;99392.28;4990001;28;20108;-73
2021/04/23 10:29:48;;;;;;;4.30;2.08;;;;;;;16.42;30.30;99404.66;4991407;28;20496;-74
2021/04/23 10:32:15;;;;;;;5.22;2.20;;;;;;;16.32;30.17;99401.63;4986899;28;20042;-73
2021/04/23 10:34:42;;;;;;;3.45;1.90;;;;;;;16.40;29.46;99396.81;4998117;28;20057;-73
2021/04/23 10:37:09;;;;;;;4.53;2.20;;;;;;;16.53;28.99;99397.91;4988738;28;20041;-74
2021/04/23 10:39:36;;;;;;;4.20;2.10;;;;;;;17.05;29.06;99392.69;4984761;28;20367;-74
2021/04/23 10:42:06;;;;;;;4.07;2.20;;;;;;;16.65;29.01;99388.56;4984130;28;20089;-75
2021/04/23 10:44:58;;;;;;;4.43;2.00;;;;;;;16.32;31.08;99382.28;4989651;28;20031;-72
2021/04/23 10:47:51;;;;;;;3.50;2.13;;;;;;;17.17;30.12;99380.63;4978846;28;20029;-72
2021/04/23 10:50:24;;;;;;;4.13;2.30;;;;;;;17.23;30.07;99378.53;4994194;28;20038;-72
2021/04/23 10:53:02;;;;;;;333.70;37.30;;;;;;;16.82;29.17;99377.16;4990055;28;20034;-73
2021/04/23 10:55:56;;;;;;;6.50;2.33;;;;;;;17.35;28.40;99381.47;4989952;28;20141;-72
2021/04/23 10:58:27;;;;;;;5.18;2.15;;;;;;;17.16;28.96;99371.84;4990281;28;20050;-72
2021/04/23 11:00:55;;;;;;;4.55;2.10;;;;;;;17.54;28.14;99371.63;4986780;28;20145;-72
2021/04/23 11:03:20;;;;;;;3.08;1.85;;;;;;;17.52;27.65;99373.50;4989635;28;20042;-71
2021/04/23 11:06:18;;;;;;;5.50;2.20;;;;;;;17.80;26.87;99373.75;4990807;28;20030;-72
2021/04/23 11:08:59;;;;;;;4.40;2.00;;;;;;;18.23;26.36;99366.91;4956282;28;20037;-73
2021/04/23 11:11:25;;;;;;;3.35;1.80;;;;;;;18.12;26.58;99369.31;4989322;28;20066;-72
2021/04/23 11:13:52;;;;;;;3.53;2.00;;;;;;;18.24;26.61;99379.22;4985225;28;20048;-73
2021/04/23 11:16:22;;;;;;;4.25;2.17;;;;;;;17.86;28.16;99368.13;4986754;28;20487;-73
2021/04/23 11:18:52;;;;;;;4.05;1.92;;;;;;;17.49;29.75;99368.38;4982586;28;20034;-72
2021/04/23 11:21:30;;;;;;;4.95;2.13;;;;;;;18.78;28.35;99357.63;4988249;28;20030;-72
2021/04/23 11:24:18;;;;;;;7.40;2.40;;;;;;;20.58;25.26;99353.34;4980607;28;20117;-73
2021/04/23 11:26:57;;;;;;;4.50;2.10;;;;;;;20.87;24.32;99355.84;4980068;28;20066;-73
2021/04/23 11:29:26;;;;;;;4.47;2.10;;;;;;;21.88;21.89;99347.84;4979407;28;20034;-72
2021/04/23 11:32:12;;;;;;;3.55;1.88;;;;;;;20.36;23.86;99350.38;4981745;28;20045;-73
2021/04/23 11:34:40;;;;;;;3.72;1.80;;;;;;;21.58;22.57;99344.72;4987361;28;20041;-73
2021/04/23 11:37:09;;;;;;;3.75;1.80;;;;;;;22.03;21.70;99336.13;4988980;28;20030;-73
2021/04/23 11:39:41;;;;;;;4.10;2.13;;;;;;;22.97;19.62;99341.53;4988352;28;20574;-75
2021/04/23 11:42:09;;;;;;;4.22;2.08;;;;;;;21.35;21.10;99338.38;4987683;28;20026;-74